Time;durP1;ratioP1;P1;durP2;ratioP2;P2;SDS_P1;SDS_P2;PMS_P1;PMS_P2;Temp;Humidity;BMP_temperature;BMP_pressure;BME280_temperature;BME280_humidity;BME280_pressure;Samples;Min_cycle;Max_cycle;Signal;HPM_P1;HPM_P2
2024/03/18 00:00:18;;;;;;;2.45;0.98;;;15.30;74.80;;;;;;2313702;54;21072;-66
2024/03/18 00:02:51;;;;;;;1.95;0.75;;;15.20;74.70;;;;;;2313309;55;21036;-66
2024/03/18 00:05:18;;;;;;;2.47;0.80;;;15.20;74.60;;;;;;2313855;53;20997;-66
2024/03/18 00:07:45;;;;;;;4.50;0.90;;;15.30;74.80;;;;;;2313001;55;20976;-66
2024/03/18 00:10:14;;;;;;;2.87;0.93;;;15.30;74.90;;;;;;2313565;55;21036;-66
2024/03/18 00:12:41;;;;;;;3.40;0.90;;;15.20;74.60;;;;;;2313109;55;20957;-66
2024/03/18 00:15:08;;;;;;;3.97;1.00;;;15.20;74.80;;;;;;2313498;53;21016;-66
2024/03/18 00:17:34;;;;;;;3.65;0.93;;;15.30;74.90;;;;;;2313058;53;20981;-65
2024/03/18 00:20:11;;;;;;;4.68;0.93;;;15.30;74.90;;;;;;2313456;53;21032;-66
2024/03/18 00:22:38;;;;;;;2.40;0.90;;;15.20;74.60;;;;;;2312397;54;21304;-66
2024/03/18 00:25:06;;;;;;;2.75;0.90;;;15.30;74.90;;;;;;2313614;55;20976;-66
2024/03/18 00:27:32;;;;;;;2.78;1.00;;;15.30;75.00;;;;;;2313146;55;20985;-66
2024/03/18 00:30:00;;;;;;;2.00;0.70;;;15.30;75.00;;;;;;2313727;53;20937;-66
2024/03/18 00:32:30;;;;;;;2.15;0.90;;;15.30;75.00;;;;;;2313682;53;20991;-66
2024/03/18 00:34:57;;;;;;;2.67;1.00;;;15.20;74.70;;;;;;2313855;55;20968;-65
2024/03/18 00:37:24;;;;;;;3.25;0.95;;;15.20;74.80;;;;;;2312966;54;20953;-66
2024/03/18 00:39:50;;;;;;;2.70;1.33;;;15.20;74.70;;;;;;2313275;53;21385;-65
2024/03/18 00:42:17;;;;;;;3.87;1.10;;;15.30;74.80;;;;;;2313312;53;20976;-65
2024/03/18 00:44:43;;;;;;;4.47;1.05;;;15.20;74.70;;;;;;2313265;55;20987;-66
2024/03/18 00:47:10;;;;;;;3.28;1.20;;;15.20;74.70;;;;;;2313649;55;21222;-66
2024/03/18 00:49:37;;;;;;;2.58;1.17;;;15.20;74.70;;;;;;2311760;53;21462;-65
2024/03/18 00:52:03;;;;;;;3.30;1.12;;;15.20;74.70;;;;;;2311373;54;20991;-65
2024/03/18 00:54:32;;;;;;;2.00;1.00;;;15.20;74.80;;;;;;2293623;55;21001;-66
2024/03/18 00:56:59;;;;;;;2.72;0.95;;;15.20;74.90;;;;;;2314056;55;21899;-66
2024/03/18 00:59:26;;;;;;;3.10;1.00;;;15.20;74.90;;;;;;2312843;53;20941;-65
2024/03/18 01:01:52;;;;;;;3.40;1.10;;;15.20;74.90;;;;;;2311517;55;20985;-66
2024/03/18 01:04:19;;;;;;;3.20;0.93;;;15.20;74.90;;;;;;2313187;54;21538;-66
2024/03/18 01:06:45;;;;;;;3.15;1.00;;;15.30;75.10;;;;;;2312507;53;21305;-65
2024/03/18 01:09:12;;;;;;;3.12;1.00;;;15.20;75.00;;;;;;2314437;53;20977;-66
2024/03/18 01:11:38;;;;;;;2.97;1.05;;;15.20;75.00;;;;;;2312495;55;20945;-65
2024/03/18 01:14:05;;;;;;;2.65;0.90;;;15.30;75.10;;;;;;2313647;55;21028;-66
2024/03/18 01:16:32;;;;;;;2.30;0.98;;;15.20;75.00;;;;;;2312932;55;20947;-65
2024/03/18 01:18:59;;;;;;;3.30;0.75;;;15.20;75.00;;;;;;2313535;53;21994;-67
2024/03/18 01:21:28;;;;;;;2.40;0.77;;;15.20;75.00;;;;;;2312591;55;21081;-65
2024/03/18 01:23:55;;;;;;;2.35;0.90;;;15.20;74.80;;;;;;2312497;54;22436;-66
2024/03/18 01:26:21;;;;;;;2.78;1.00;;;15.20;74.90;;;;;;2313519;53;21202;-66
2024/03/18 01:28:48;;;;;;;2.80;0.90;;;15.20;74.90;;;;;;2312424;53;20969;-66
2024/03/18 01:31:14;;;;;;;2.80;1.10;;;15.20;74.90;;;;;;2313551;53;21001;-65
2024/03/18 01:33:40;;;;;;;2.30;0.93;;;15.20;74.90;;;;;;2312633;55;21891;-66
2024/03/18 01:36:07;;;;;;;2.40;1.00;;;15.20;74.90;;;;;;2313686;54;21021;-66
2024/03/18 01:38:34;;;;;;;2.42;1.10;;;15.20;75.00;;;;;;2312701;53;21020;-65
2024/03/18 01:41:02;;;;;;;2.67;1.30;;;15.20;75.00;;;;;;2313062;53;20981;-66
2024/03/18 01:43:29;;;;;;;2.60;1.10;;;15.20;75.00;;;;;;2312911;53;21021;-66
2024/03/18 01:45:55;;;;;;;2.05;0.90;;;15.20;75.00;;;;;;2312935;55;20992;-66
2024/03/18 01:48:21;;;;;;;4.62;1.50;;;15.20;75.00;;;;;;2313197;53;21478;-65
2024/03/18 01:50:48;;;;;;;2.87;0.85;;;15.20;75.00;;;;;;2312503;53;21380;-66
2024/03/18 01:53:14;;;;;;;1.85;0.90;;;15.20;75.00;;;;;;2312603;53;20984;-65
2024/03/18 01:55:40;;;;;;;2.50;0.85;;;15.20;75.00;;;;;;2311587;53;20985;-66
2024/03/18 01:58:09;;;;;;;2.67;0.90;;;15.20;75.00;;;;;;2313526;55;21008;-66
2024/03/18 02:00:35;;;;;;;2.25;0.90;;;15.20;74.90;;;;;;2312910;55;21001;-66
2024/03/18 02:03:02;;;;;;;2.83;0.80;;;15.20;74.90;;;;;;2313207;55;20988;-65
2024/03/18 02:05:29;;;;;;;1.80;0.70;;;15.20;74.90;;;;;;2313086;55;20953;-66
2024/03/18 02:07:56;;;;;;;1.65;0.60;;;15.20;74.90;;;;;;2312571;55;20998;-66
2024/03/18 02:10:22;;;;;;;2.37;0.90;;;15.20;74.90;;;;;;2313610;55;20969;-66
2024/03/18 02:12:48;;;;;;;3.17;0.90;;;15.20;75.00;;;;;;2312606;55;21798;-65
2024/03/18 02:15:14;;;;;;;2.53;0.90;;;15.20;75.00;;;;;;2313789;55;21438;-66
2024/03/18 02:17:41;;;;;;;2.45;0.98;;;15.20;74.90;;;;;;2312872;53;20949;-66
2024/03/18 02:20:09;;;;;;;2.42;0.80;;;15.20;74.80;;;;;;2313711;55;21044;-66
2024/03/18 02:22:38;;;;;;;4.22;1.20;;;15.20;74.80;;;;;;2311858;53;20969;-65
2024/03/18 02:25:04;;;;;;;2.62;1.10;;;15.20;74.80;;;;;;2313170;55;21444;-66
2024/03/18 02:27:31;;;;;;;4.47;0.90;;;15.10;74.80;;;;;;2313423;55;20941;-66
2024/03/18 02:29:57;;;;;;;3.12;1.00;;;15.20;74.90;;;;;;2313558;53;20941;-65
2024/03/18 02:32:24;;;;;;;2.50;0.90;;;15.20;74.90;;;;;;2313498;55;21878;-66
2024/03/18 02:34:50;;;;;;;2.58;0.73;;;15.20;75.00;;;;;;2313466;53;20969;-66
2024/03/18 02:37:16;;;;;;;1.95;0.70;;;15.20;74.90;;;;;;2309631;53;20953;-66
2024/03/18 02:39:43;;;;;;;2.15;0.77;;;15.20;74.90;;;;;;2313237;53;20938;-66
2024/03/18 02:42:10;;;;;;;2.17;0.82;;;15.20;74.90;;;;;;2314330;53;21017;-66
2024/03/18 02:44:36;;;;;;;3.58;0.70;;;15.10;74.70;;;;;;2312586;53;21009;-66
2024/03/18 02:47:03;;;;;;;3.45;0.98;;;15.10;74.70;;;;;;2313697;55;21021;-66
2024/03/18 02:49:30;;;;;;;1.85;0.77;;;15.10;74.70;;;;;;2313686;55;21426;-65
2024/03/18 02:51:56;;;;;;;2.90;0.93;;;15.10;74.70;;;;;;2316161;55;21752;-66
2024/03/18 02:54:25;;;;;;;2.85;0.80;;;15.10;74.70;;;;;;2308337;53;21619;-66
2024/03/18 02:56:52;;;;;;;1.92;0.65;;;15.10;74.60;;;;;;2311981;55;22402;-67
2024/03/18 02:59:18;;;;;;;2.03;0.77;;;15.10;74.60;;;;;;2313550;55;21417;-66
2024/03/18 03:01:49;;;;;;;2.60;0.82;;;15.10;74.70;;;;;;2312695;53;21266;-66
2024/03/18 03:04:16;;;;;;;2.40;0.70;;;15.10;74.70;;;;;;2313446;54;20973;-66
2024/03/18 03:06:42;;;;;;;2.20;0.80;;;15.10;74.70;;;;;;2312170;55;21364;-66
2024/03/18 03:09:09;;;;;;;2.50;1.00;;;15.00;74.60;;;;;;2313985;55;20928;-66
2024/03/18 03:11:36;;;;;;;3.42;0.75;;;15.00;74.50;;;;;;2313209;55;21013;-65
2024/03/18 03:14:02;;;;;;;4.37;1.30;;;15.10;74.60;;;;;;2313807;53;21980;-66
2024/03/18 03:16:29;;;;;;;4.18;1.37;;;15.00;74.50;;;;;;2313381;55;21009;-66
2024/03/18 03:18:56;;;;;;;2.40;0.90;;;15.00;74.60;;;;;;2312193;53;21024;-66
2024/03/18 03:21:22;;;;;;;3.12;1.48;;;15.00;74.60;;;;;;2313442;55;21305;-66
2024/03/18 03:23:50;;;;;;;3.47;1.87;;;15.00;74.70;;;;;;2312569;53;21415;-66
2024/03/18 03:26:16;;;;;;;3.58;1.77;;;15.00;74.70;;;;;;2314382;54;21325;-65
2024/03/18 03:28:44;;;;;;;3.60;1.67;;;14.90;74.70;;;;;;2288252;55;20980;-66
2024/03/18 03:31:10;;;;;;;3.42;1.40;;;14.90;74.70;;;;;;2292598;55;21017;-65
2024/03/18 03:33:40;;;;;;;2.15;0.98;;;15.00;74.80;;;;;;2313117;55;21452;-66
2024/03/18 03:36:08;;;;;;;3.05;1.00;;;14.90;74.60;;;;;;2313699;53;20980;-66
2024/03/18 03:38:34;;;;;;;3.12;0.80;;;15.00;74.90;;;;;;2313018;53;20965;-66
2024/03/18 03:41:03;;;;;;;2.70;0.98;;;14.90;74.90;;;;;;2313436;53;20968;-65
2024/03/18 03:43:30;;;;;;;3.42;1.10;;;15.00;75.00;;;;;;2313732;55;21021;-66
2024/03/18 03:45:59;;;;;;;3.03;1.30;;;15.00;75.00;;;;;;2312639;53;21903;-64
2024/03/18 03:48:29;;;;;;;3.90;1.20;;;15.00;75.00;;;;;;2313235;53;21399;-66
2024/03/18 03:50:56;;;;;;;2.15;0.90;;;15.00;74.90;;;;;;2313165;53;20952;-66
2024/03/18 03:53:22;;;;;;;1.92;0.70;;;15.00;75.00;;;;;;2313938;55;21039;-66
2024/03/18 03:55:55;;;;;;;1.98;0.77;;;15.00;75.00;;;;;;2313209;55;21056;-65
2024/03/18 03:58:23;;;;;;;3.42;0.90;;;15.00;74.80;;;;;;2315500;53;20977;-66
2024/03/18 04:00:49;;;;;;;2.47;0.90;;;15.00;74.90;;;;;;2290263;55;21044;-65
2024/03/18 04:03:27;;;;;;;2.12;0.95;;;15.00;74.80;;;;;;2313982;54;20985;-66
2024/03/18 04:05:54;;;;;;;1.80;0.70;;;15.00;74.80;;;;;;2315904;53;21018;-66
2024/03/18 04:08:21;;;;;;;3.17;1.12;;;15.00;74.90;;;;;;2313733;55;21100;-66
2024/03/18 04:10:49;;;;;;;2.62;0.93;;;15.00;74.90;;;;;;2313397;54;21016;-65
2024/03/18 04:13:15;;;;;;;2.58;1.20;;;15.00;75.00;;;;;;2313416;55;21084;-66
2024/03/18 04:15:42;;;;;;;1.90;0.77;;;15.00;75.00;;;;;;2312450;53;21518;-66
2024/03/18 04:18:09;;;;;;;1.42;0.60;;;15.00;75.00;;;;;;2316601;53;21128;-66
2024/03/18 04:20:35;;;;;;;3.83;0.80;;;15.00;75.10;;;;;;2313535;53;21506;-65
2024/03/18 04:23:05;;;;;;;2.42;1.00;;;15.00;75.10;;;;;;2313331;53;21477;-66
2024/03/18 04:25:33;;;;;;;1.85;0.70;;;14.90;75.00;;;;;;2313417;53;20993;-66
2024/03/18 04:28:02;;;;;;;2.42;0.88;;;15.00;75.10;;;;;;2312896;53;20976;-66
2024/03/18 04:30:30;;;;;;;2.53;1.10;;;15.00;75.10;;;;;;2313223;53;21048;-66
2024/03/18 04:32:56;;;;;;;2.47;0.73;;;15.00;75.20;;;;;;2313154;53;21356;-65
2024/03/18 04:35:22;;;;;;;2.83;0.70;;;15.00;75.00;;;;;;2312830;55;21025;-66
2024/03/18 04:37:51;;;;;;;2.62;0.80;;;15.00;75.00;;;;;;2312615;53;20945;-65
2024/03/18 04:40:18;;;;;;;3.33;0.88;;;15.00;75.00;;;;;;2313442;55;21061;-66
2024/03/18 04:42:44;;;;;;;1.65;0.62;;;15.00;75.00;;;;;;2312877;55;21262;-66
2024/03/18 04:45:11;;;;;;;4.12;1.10;;;15.00;75.10;;;;;;2313516;55;20972;-65
2024/03/18 04:47:49;;;;;;;2.62;0.98;;;15.00;75.10;;;;;;2313106;55;21016;-66
2024/03/18 04:50:20;;;;;;;3.30;1.23;;;15.00;74.70;;;;;;2315246;53;21013;-66
2024/03/18 04:52:47;;;;;;;3.12;1.25;;;15.00;75.10;;;;;;2309846;55;21004;-66
2024/03/18 04:55:15;;;;;;;2.50;1.17;;;15.00;75.10;;;;;;2313451;53;20977;-65
2024/03/18 04:57:43;;;;;;;3.17;1.27;;;15.00;75.20;;;;;;2312310;53;20957;-66
2024/03/18 05:00:16;;;;;;;2.35;0.90;;;15.00;75.20;;;;;;2313107;53;20937;-66
2024/03/18 05:02:42;;;;;;;2.45;1.10;;;15.00;75.20;;;;;;2312601;55;21502;-66
2024/03/18 05:05:13;;;;;;;2.90;1.08;;;15.00;75.20;;;;;;2312441;55;21028;-66
2024/03/18 05:07:39;;;;;;;2.75;1.10;;;15.00;75.20;;;;;;2312988;55;21021;-66
2024/03/18 05:10:06;;;;;;;2.37;0.82;;;15.00;75.20;;;;;;2312026;53;21017;-66
2024/03/18 05:12:36;;;;;;;2.30;0.98;;;15.10;75.30;;;;;;2312990;55;21036;-67
2024/03/18 05:15:03;;;;;;;1.70;0.80;;;15.00;75.80;;;;;;2312881;53;21389;-66
2024/03/18 05:17:29;;;;;;;2.53;0.90;;;15.00;75.20;;;;;;2312974;54;20993;-65
2024/03/18 05:19:55;;;;;;;2.72;1.00;;;15.10;75.40;;;;;;2312314;55;20985;-67
2024/03/18 05:22:22;;;;;;;4.03;1.12;;;15.10;75.40;;;;;;2312135;53;20973;-66
2024/03/18 05:24:48;;;;;;;2.40;0.80;;;15.00;75.30;;;;;;2312820;55;20981;-67
2024/03/18 05:27:16;;;;;;;2.80;0.90;;;15.10;75.40;;;;;;2315454;53;20999;-67
2024/03/18 05:29:42;;;;;;;3.05;1.05;;;15.10;75.40;;;;;;2308353;55;20988;-65
2024/03/18 05:32:09;;;;;;;3.45;1.17;;;15.00;75.30;;;;;;2312666;53;21272;-66
2024/03/18 05:34:36;;;;;;;2.72;0.90;;;15.10;75.40;;;;;;2313136;53;21298;-66
2024/03/18 05:37:09;;;;;;;1.98;0.85;;;15.10;75.30;;;;;;2314564;53;21552;-66
2024/03/18 05:39:39;;;;;;;3.75;1.05;;;15.00;75.00;;;;;;2310273;53;20969;-67
2024/03/18 05:42:05;;;;;;;2.87;0.70;;;15.10;75.00;;;;;;2315941;55;21480;-66
2024/03/18 05:44:32;;;;;;;1.67;0.85;;;15.00;75.10;;;;;;2309805;55;21028;-67
2024/03/18 05:46:59;;;;;;;1.98;0.77;;;15.00;75.10;;;;;;2313631;53;20945;-67
2024/03/18 05:49:25;;;;;;;2.35;0.80;;;15.00;75.20;;;;;;2313373;55;20913;-67
2024/03/18 05:51:52;;;;;;;2.53;1.15;;;15.00;75.20;;;;;;2313024;55;21080;-66
2024/03/18 05:54:20;;;;;;;3.00;1.02;;;15.00;75.30;;;;;;2313050;55;20985;-66
2024/03/18 05:56:47;;;;;;;2.60;1.20;;;15.00;75.40;;;;;;2312872;55;20968;-67
2024/03/18 05:59:14;;;;;;;3.50;1.30;;;15.00;75.40;;;;;;2313660;53;21021;-66
2024/03/18 06:01:40;;;;;;;1.90;1.00;;;15.00;75.40;;;;;;2313089;53;21568;-67
2024/03/18 06:04:07;;;;;;;4.47;1.37;;;15.10;75.50;;;;;;2312113;53;21033;-67
2024/03/18 06:06:34;;;;;;;3.15;1.25;;;15.00;75.40;;;;;;2313172;55;21544;-66
2024/03/18 06:09:04;;;;;;;2.72;1.00;;;15.10;75.40;;;;;;2313124;53;20961;-67
2024/03/18 06:11:30;;;;;;;2.80;1.20;;;15.00;75.10;;;;;;2313335;55;21011;-66
2024/03/18 06:13:57;;;;;;;2.70;1.25;;;15.10;75.40;;;;;;2313179;53;21217;-68
2024/03/18 06:16:23;;;;;;;3.40;1.12;;;15.10;75.40;;;;;;2313527;53;20942;-67
2024/03/18 06:18:50;;;;;;;4.28;1.40;;;15.00;75.40;;;;;;2314266;53;21100;-67
2024/03/18 06:21:17;;;;;;;2.95;1.25;;;15.00;75.40;;;;;;2311703;55;21061;-67
2024/03/18 06:23:50;;;;;;;3.65;1.35;;;15.00;75.40;;;;;;2313445;53;21021;-66
2024/03/18 06:26:19;;;;;;;3.15;1.30;;;15.00;75.40;;;;;;2312959;54;20966;-68
2024/03/18 06:28:46;;;;;;;3.33;1.75;;;15.00;75.40;;;;;;2312936;55;20961;-66
2024/03/18 06:31:13;;;;;;;3.28;1.60;;;15.00;75.50;;;;;;2312943;53;21297;-66
2024/03/18 06:34:33;;;;;;;2.90;1.40;;;15.10;75.70;;;;;;2305959;55;21514;-67
2024/03/18 06:37:11;;;;;;;3.17;1.37;;;15.10;74.90;;;;;;2314086;54;20973;-66
2024/03/18 06:39:37;;;;;;;3.25;1.42;;;15.10;75.70;;;;;;2313276;55;20933;-67
2024/03/18 06:42:04;;;;;;;3.50;1.70;;;15.10;75.70;;;;;;2312616;53;20932;-66
2024/03/18 06:44:31;;;;;;;3.83;1.40;;;15.10;75.70;;;;;;2313143;53;20956;-66
2024/03/18 06:46:57;;;;;;;3.37;1.60;;;15.10;75.70;;;;;;2312123;55;21470;-66
2024/03/18 06:49:23;;;;;;;4.57;1.30;;;15.10;75.60;;;;;;2313248;53;21496;-67
2024/03/18 06:51:55;;;;;;;2.83;1.23;;;15.10;75.60;;;;;;2311292;54;21463;-67
2024/03/18 06:54:22;;;;;;;2.87;1.05;;;15.10;75.30;;;;;;2313064;54;20964;-67
2024/03/18 06:56:48;;;;;;;3.37;1.20;;;15.10;75.40;;;;;;2312687;54;21441;-66
2024/03/18 06:59:15;;;;;;;6.97;2.87;;;15.10;75.50;;;;;;2313132;55;20961;-66
2024/03/18 07:01:41;;;;;;;7.37;3.35;;;15.10;75.60;;;;;;2312905;55;21502;-66
2024/03/18 07:04:09;;;;;;;5.55;2.78;;;15.10;75.60;;;;;;2312483;54;20977;-66
2024/03/18 07:06:36;;;;;;;5.43;2.47;;;15.10;75.60;;;;;;2313893;55;20948;-67
2024/03/18 07:09:02;;;;;;;4.20;1.87;;;15.10;75.70;;;;;;2310922;53;21763;-66
2024/03/18 07:11:29;;;;;;;3.67;1.70;;;15.10;75.80;;;;;;2312649;55;21022;-66
2024/03/18 07:13:55;;;;;;;4.28;1.42;;;15.10;75.70;;;;;;2312308;53;20981;-67
2024/03/18 07:16:21;;;;;;;2.58;1.30;;;15.10;75.60;;;;;;2313526;55;20972;-66
2024/03/18 07:18:48;;;;;;;3.17;1.12;;;15.10;75.60;;;;;;2312579;53;21052;-66
2024/03/18 07:21:14;;;;;;;4.07;1.30;;;15.10;75.50;;;;;;2312800;53;20949;-67
2024/03/18 07:23:41;;;;;;;3.15;1.27;;;15.10;75.40;;;;;;2313280;54;20997;-66
2024/03/18 07:26:08;;;;;;;2.35;1.02;;;15.10;75.40;;;;;;2312785;53;21073;-66
2024/03/18 07:28:37;;;;;;;3.00;0.95;;;15.10;75.30;;;;;;2313135;54;21008;-66
2024/03/18 07:31:03;;;;;;;2.37;0.93;;;15.10;75.30;;;;;;2313005;53;21426;-67
2024/03/18 07:33:30;;;;;;;2.65;1.20;;;15.10;75.30;;;;;;2314167;53;20949;-66
2024/03/18 07:35:57;;;;;;;3.35;1.35;;;15.10;76.10;;;;;;2313302;54;20997;-66
2024/03/18 07:38:23;;;;;;;4.10;1.45;;;15.10;75.20;;;;;;2313361;55;20917;-66
2024/03/18 07:40:53;;;;;;;3.35;1.60;;;15.10;75.30;;;;;;2313272;53;20969;-68
2024/03/18 07:43:19;;;;;;;3.62;1.92;;;15.00;75.20;;;;;;2313062;55;21104;-66
2024/03/18 07:45:48;;;;;;;4.32;2.30;;;15.00;75.30;;;;;;2313151;55;21387;-66
2024/03/18 07:48:16;;;;;;;5.37;2.55;;;15.00;75.30;;;;;;2313432;53;20937;-67
2024/03/18 07:50:43;;;;;;;5.35;1.98;;;15.00;75.30;;;;;;2313342;53;21007;-67
2024/03/18 07:53:11;;;;;;;4.57;2.33;;;15.10;75.50;;;;;;2313055;55;21328;-66
2024/03/18 07:55:37;;;;;;;3.72;2.00;;;15.00;75.50;;;;;;2313047;53;20985;-67
2024/03/18 07:58:04;;;;;;;8.48;2.30;;;15.00;75.60;;;;;;2313371;53;20976;-67
2024/03/18 08:00:31;;;;;;;5.57;2.83;;;15.00;75.60;;;;;;2313747;55;21433;-66
2024/03/18 08:02:57;;;;;;;5.03;3.10;;;15.00;75.70;;;;;;2313413;55;21341;-68
2024/03/18 08:05:23;;;;;;;5.45;2.75;;;15.00;75.60;;;;;;2314056;53;21262;-68
2024/03/18 08:07:50;;;;;;;4.20;2.30;;;14.90;75.50;;;;;;2311642;55;21795;-67
2024/03/18 08:10:16;;;;;;;4.95;2.45;;;15.00;75.60;;;;;;2314026;55;21033;-68
2024/03/18 08:12:43;;;;;;;4.93;3.28;;;15.00;75.60;;;;;;2313513;53;21097;-67
2024/03/18 08:15:15;;;;;;;5.43;3.00;;;14.90;75.40;;;;;;2313431;53;21249;-67
2024/03/18 08:17:42;;;;;;;4.97;2.75;;;15.00;75.50;;;;;;2313542;55;20964;-66
2024/03/18 08:20:10;;;;;;;7.40;4.05;;;15.00;75.40;;;;;;2313497;53;21304;-67
2024/03/18 08:22:36;;;;;;;10.95;6.45;;;14.90;75.40;;;;;;2313732;53;20964;-67
2024/03/18 08:25:02;;;;;;;9.15;5.30;;;14.90;75.50;;;;;;2313327;53;21024;-65
2024/03/18 08:27:32;;;;;;;6.47;3.95;;;14.90;75.50;;;;;;2314718;53;21033;-67
2024/03/18 08:29:58;;;;;;;6.28;3.60;;;14.90;75.60;;;;;;2310799;53;20949;-66
2024/03/18 08:32:24;;;;;;;5.62;2.78;;;14.90;75.60;;;;;;2313560;53;21442;-68
2024/03/18 08:34:51;;;;;;;4.00;2.35;;;14.90;75.70;;;;;;2313431;55;21818;-66
2024/03/18 08:37:20;;;;;;;3.65;2.15;;;14.90;75.70;;;;;;2313185;55;21037;-66
2024/03/18 08:39:47;;;;;;;3.80;1.83;;;14.90;75.70;;;;;;2313627;53;21093;-67
2024/03/18 08:42:14;;;;;;;3.17;1.60;;;14.90;75.90;;;;;;2313399;53;21060;-67
2024/03/18 08:44:40;;;;;;;5.40;2.28;;;15.00;76.10;;;;;;2313848;53;21842;-67
2024/03/18 08:47:07;;;;;;;4.35;2.35;;;14.90;76.00;;;;;;2313608;55;21395;-68
2024/03/18 08:49:33;;;;;;;3.70;1.85;;;14.90;76.10;;;;;;2313536;55;21612;-68
2024/03/18 08:52:01;;;;;;;3.70;1.73;;;14.90;76.10;;;;;;2313804;55;21072;-66
2024/03/18 08:54:29;;;;;;;3.12;1.60;;;14.90;76.00;;;;;;2488085;53;1719789;-68
2024/03/18 08:56:55;;;;;;;3.20;1.52;;;14.90;76.00;;;;;;2313115;53;21304;-67
2024/03/18 08:59:22;;;;;;;3.58;1.65;;;15.00;76.10;;;;;;2316982;54;20973;-66
2024/03/18 09:01:49;;;;;;;2.70;1.23;;;15.00;76.00;;;;;;2309213;53;20981;-68
2024/03/18 09:04:15;;;;;;;3.12;1.30;;;14.90;75.90;;;;;;2313388;55;21017;-68
2024/03/18 09:06:44;;;;;;;3.37;1.37;;;14.90;75.90;;;;;;2313604;53;21824;-67
2024/03/18 09:09:11;;;;;;;2.95;1.00;;;15.00;76.10;;;;;;2312937;55;21792;-67
2024/03/18 09:11:38;;;;;;;2.12;0.95;;;14.90;76.00;;;;;;2314823;53;20944;-65
2024/03/18 09:14:07;;;;;;;2.83;1.20;;;15.00;76.30;;;;;;2313246;54;21218;-67
2024/03/18 09:16:33;;;;;;;2.85;1.30;;;15.00;76.50;;;;;;2313060;54;20917;-68
2024/03/18 09:19:00;;;;;;;3.72;1.45;;;15.00;76.60;;;;;;2313258;53;21038;-67
2024/03/18 09:21:26;;;;;;;3.67;1.50;;;15.00;76.60;;;;;;2313328;53;21013;-67
2024/03/18 09:23:54;;;;;;;4.30;1.70;;;15.00;76.70;;;;;;2313270;53;21064;-66
2024/03/18 09:26:20;;;;;;;2.87;1.27;;;15.10;76.80;;;;;;2313549;53;21005;-67
2024/03/18 09:28:47;;;;;;;3.80;1.40;;;15.20;77.00;;;;;;2313787;53;20944;-67
2024/03/18 09:31:14;;;;;;;4.62;2.03;;;15.10;77.00;;;;;;2313224;55;21020;-67
2024/03/18 09:33:41;;;;;;;4.47;2.10;;;15.20;77.00;;;;;;2313325;53;21060;-67
2024/03/18 09:36:07;;;;;;;4.72;2.50;;;15.20;77.10;;;;;;2313380;55;21307;-67
2024/03/18 09:38:33;;;;;;;4.18;2.33;;;15.20;77.10;;;;;;2313537;53;20976;-67
2024/03/18 09:41:04;;;;;;;4.53;2.12;;;15.30;77.10;;;;;;2313394;55;22030;-68
2024/03/18 09:43:36;;;;;;;3.87;2.00;;;15.30;77.00;;;;;;2313642;55;21072;-67
2024/03/18 09:46:05;;;;;;;;;;;15.30;76.80;;;;;;2317174;53;21020;-67
2024/03/18 09:48:31;;;;;;;3.35;1.70;;;15.40;75.90;;;;;;2314090;55;20124;-67
2024/03/18 09:51:01;;;;;;;3.85;1.70;;;15.40;76.60;;;;;;2313480;53;21383;-68
2024/03/18 09:53:30;;;;;;;3.37;1.52;;;15.40;76.60;;;;;;2313665;53;21966;-67
2024/03/18 09:55:56;;;;;;;3.22;1.65;;;15.40;76.70;;;;;;2313444;53;20977;-68
2024/03/18 09:58:24;;;;;;;4.10;1.85;;;15.50;77.00;;;;;;2313515;55;20952;-66
2024/03/18 10:00:50;;;;;;;2.95;1.40;;;15.50;77.10;;;;;;2313438;53;20993;-67
2024/03/18 10:03:18;;;;;;;3.87;1.50;;;15.50;77.30;;;;;;2313089;53;20984;-67
2024/03/18 10:05:45;;;;;;;3.08;1.40;;;15.50;77.40;;;;;;2313642;55;21033;-68
2024/03/18 10:08:16;;;;;;;3.20;1.42;;;15.60;77.50;;;;;;2311931;53;20969;-67
2024/03/18 10:10:46;;;;;;;3.92;1.62;;;15.70;77.70;;;;;;2314994;55;21660;-69
2024/03/18 10:13:12;;;;;;;3.90;1.60;;;15.70;77.60;;;;;;2310908;53;21509;-68
2024/03/18 10:15:39;;;;;;;3.28;1.55;;;15.70;77.50;;;;;;2313128;55;21020;-67
2024/03/18 10:18:11;;;;;;;3.62;1.80;;;15.70;77.50;;;;;;2313485;55;21025;-68
2024/03/18 10:20:38;;;;;;;3.67;1.50;;;15.80;77.20;;;;;;2313453;53;21522;-68
2024/03/18 10:23:05;;;;;;;5.07;1.98;;;15.80;77.30;;;;;;2312327;55;20981;-67
2024/03/18 10:25:31;;;;;;;3.17;1.75;;;15.90;77.20;;;;;;2313955;53;21021;-66
2024/03/18 10:27:57;;;;;;;2.78;1.60;;;15.90;77.20;;;;;;2313544;55;21531;-67
2024/03/18 10:30:27;;;;;;;3.78;1.75;;;15.90;77.10;;;;;;2313572;53;21441;-67
2024/03/18 10:32:54;;;;;;;4.05;2.15;;;16.00;77.20;;;;;;2313613;55;21518;-67
2024/03/18 10:35:26;;;;;;;3.25;1.85;;;16.00;77.20;;;;;;2313150;53;21006;-68
2024/03/18 10:38:02;;;;;;;4.18;1.95;;;16.00;77.00;;;;;;2313568;53;21523;-67
2024/03/18 10:40:34;;;;;;;4.18;2.12;;;16.10;77.10;;;;;;2313507;53;20949;-68
2024/03/18 10:43:04;;;;;;;4.62;3.05;;;16.10;77.00;;;;;;2313834;53;21016;-68
2024/03/18 10:45:34;;;;;;;4.45;2.58;;;16.20;76.90;;;;;;2313248;53;21021;-67
2024/03/18 10:48:04;;;;;;;4.05;2.70;;;16.10;76.90;;;;;;2313779;53;21091;-68
2024/03/18 10:50:31;;;;;;;4.07;2.10;;;16.20;76.80;;;;;;2313497;53;21281;-67
2024/03/18 10:52:57;;;;;;;3.75;2.22;;;16.20;76.70;;;;;;2313251;54;21021;-68
2024/03/18 10:55:23;;;;;;;4.07;2.00;;;16.20;76.70;;;;;;2313518;55;21624;-68
2024/03/18 10:57:51;;;;;;;3.67;1.80;;;16.20;76.60;;;;;;2313510;55;20945;-68
2024/03/18 11:00:18;;;;;;;4.37;2.08;;;16.20;76.60;;;;;;2316299;53;20950;-68
2024/03/18 11:03:01;;;;;;;4.25;2.05;;;16.20;76.60;;;;;;2313026;54;21375;-69
2024/03/18 11:05:34;;;;;;;4.15;2.12;;;16.30;76.10;;;;;;2314665;53;20953;-67
2024/03/18 11:08:06;;;;;;;3.87;1.92;;;16.30;76.40;;;;;;2309387;55;20985;-67
2024/03/18 11:10:35;;;;;;;3.67;1.70;;;16.30;76.10;;;;;;2314826;53;21178;-67
2024/03/18 11:13:14;;;;;;;3.28;1.62;;;16.30;76.20;;;;;;2289802;55;20957;-67
2024/03/18 11:15:55;;;;;;;2.95;1.30;;;16.30;76.00;;;;;;2312883;53;20941;-69
2024/03/18 11:18:24;;;;;;;3.80;1.62;;;16.30;76.00;;;;;;2313522;55;20922;-69
2024/03/18 11:20:52;;;;;;;3.47;1.70;;;16.30;76.60;;;;;;2313573;55;20992;-68
2024/03/18 11:23:24;;;;;;;4.05;2.35;;;16.30;76.60;;;;;;2313544;53;21077;-69
2024/03/18 11:25:57;;;;;;;3.35;1.95;;;16.30;76.50;;;;;;2313649;53;21443;-67
2024/03/18 11:31:02;;;;;;;4.03;1.83;;;16.30;76.40;;;;;;2313484;55;21230;-68
2024/03/18 11:33:28;;;;;;;3.78;1.65;;;16.40;75.80;;;;;;2313661;53;21052;-67
2024/03/18 11:35:55;;;;;;;4.65;2.30;;;16.40;76.50;;;;;;2313468;53;21013;-67
2024/03/18 11:38:21;;;;;;;6.20;3.17;;;16.40;76.50;;;;;;2313624;55;20977;-69
2024/03/18 11:40:48;;;;;;;7.07;3.35;;;16.40;76.60;;;;;;2314040;53;20925;-69
2024/03/18 11:43:14;;;;;;;6.95;3.37;;;16.40;76.70;;;;;;2313357;53;21736;-68
2024/03/18 11:45:46;;;;;;;7.65;3.30;;;16.40;76.80;;;;;;2313766;55;21399;-69
2024/03/18 11:48:13;;;;;;;7.78;4.18;;;16.50;76.80;;;;;;2314177;55;20942;-69
2024/03/18 11:50:39;;;;;;;5.15;2.78;;;16.50;76.80;;;;;;2313552;55;21438;-66
2024/03/18 11:53:09;;;;;;;6.53;3.10;;;16.50;76.60;;;;;;2313643;55;22005;-67
2024/03/18 11:55:36;;;;;;;4.53;2.70;;;16.50;77.10;;;;;;2313263;53;21026;-66
2024/03/18 11:58:06;;;;;;;5.87;3.30;;;16.50;76.40;;;;;;2313626;55;20973;-67
2024/03/18 12:00:36;;;;;;;4.87;3.05;;;16.50;76.30;;;;;;2313459;55;21017;-68
2024/03/18 12:03:04;;;;;;;4.45;2.70;;;16.50;76.30;;;;;;2314052;55;21297;-67
2024/03/18 12:05:31;;;;;;;4.43;2.40;;;16.50;76.30;;;;;;2313102;55;21016;-68
2024/03/18 12:07:57;;;;;;;4.05;2.20;;;16.50;76.30;;;;;;2313384;55;21028;-68
2024/03/18 12:10:23;;;;;;;3.83;2.30;;;16.50;76.20;;;;;;2313023;55;21087;-67
2024/03/18 12:12:50;;;;;;;3.87;1.90;;;16.50;76.20;;;;;;2314154;55;21352;-68
2024/03/18 12:15:16;;;;;;;3.20;1.80;;;16.50;76.20;;;;;;2313539;53;21349;-69
2024/03/18 12:17:45;;;;;;;3.35;1.90;;;16.50;76.20;;;;;;2313465;55;21513;-68
2024/03/18 12:20:26;;;;;;;4.65;2.12;;;16.50;76.20;;;;;;2312679;53;20969;-68
2024/03/18 12:23:04;;;;;;;5.40;2.45;;;16.50;76.00;;;;;;2314186;55;21013;-67
2024/03/18 12:31:12;;;;;;;4.93;2.58;;;16.50;76.30;;;;;;2313403;55;20969;-69
2024/03/18 12:33:42;;;;;;;5.35;2.85;;;16.50;76.20;;;;;;2313138;53;21041;-67
2024/03/18 12:36:10;;;;;;;3.83;2.05;;;16.50;76.10;;;;;;2313139;53;21008;-68
2024/03/18 12:38:37;;;;;;;4.22;2.45;;;16.60;76.20;;;;;;2312468;53;20977;-67
2024/03/18 12:41:04;;;;;;;5.05;2.75;;;16.60;76.40;;;;;;2313465;54;21449;-68
2024/03/18 12:43:32;;;;;;;4.22;2.58;;;16.50;76.30;;;;;;2313235;53;20949;-69
2024/03/18 12:46:00;;;;;;;4.70;2.78;;;16.60;76.50;;;;;;2313231;53;20969;-68
2024/03/18 12:48:36;;;;;;;4.72;2.70;;;16.60;76.90;;;;;;2313865;53;21008;-66
2024/03/18 12:51:03;;;;;;;4.90;2.78;;;16.60;77.10;;;;;;2313616;55;21100;-67
2024/03/18 12:53:30;;;;;;;6.40;3.00;;;16.70;77.40;;;;;;2313228;53;21321;-68
2024/03/18 12:56:00;;;;;;;4.45;2.50;;;16.70;77.60;;;;;;2314152;54;21000;-67
2024/03/18 12:58:26;;;;;;;5.18;2.78;;;16.70;77.80;;;;;;2314102;53;21032;-67